createdAt,value
2022-09-03T00:02:40.256Z,2.70
2022-09-03T00:05:57.797Z,2.90
2022-09-03T00:09:04.849Z,3.00
2022-09-03T00:12:13.917Z,3.40
2022-09-03T00:15:05.187Z,2.97
2022-09-03T00:18:05.343Z,3.10
2022-09-03T00:20:41.677Z,3.00
2022-09-03T00:23:25.583Z,3.27
2022-09-03T00:26:14.925Z,3.00
2022-09-03T00:29:20.388Z,3.40
2022-09-03T00:32:04.821Z,3.10
2022-09-03T00:34:44.130Z,3.13
2022-09-03T00:37:15.276Z,3.50
2022-09-03T00:39:53.321Z,3.40
2022-09-03T00:42:35.917Z,3.00
2022-09-03T00:45:42.773Z,2.90
2022-09-03T00:48:30.850Z,3.50
2022-09-03T00:51:27.542Z,2.93
2022-09-03T00:54:45.943Z,3.23
2022-09-03T00:57:37.278Z,2.80
2022-09-03T01:00:22.527Z,2.93
2022-09-03T01:03:11.005Z,3.30
2022-09-03T01:06:24.162Z,2.87
2022-09-03T01:09:13.472Z,2.80
2022-09-03T01:12:02.887Z,3.27
2022-09-03T01:15:41.022Z,2.90
2022-09-03T01:18:52.522Z,2.67
2022-09-03T01:21:42.222Z,2.93
2022-09-03T01:24:57.702Z,3.20
2022-09-03T01:28:13.022Z,2.87
2022-09-03T01:30:52.743Z,2.77
2022-09-03T01:33:27.939Z,3.07
2022-09-03T01:36:10.562Z,2.90
2022-09-03T01:38:45.526Z,2.90
2022-09-03T01:41:53.342Z,2.83
2022-09-03T01:44:53.073Z,2.80
2022-09-03T01:47:41.405Z,3.20
2022-09-03T01:50:23.522Z,2.87
2022-09-03T01:52:53.728Z,2.77
2022-09-03T01:55:48.432Z,3.00
2022-09-03T01:58:33.682Z,3.27
2022-09-03T02:01:10.564Z,3.20
2022-09-03T02:03:42.856Z,3.20
2022-09-03T02:06:12.072Z,3.13
2022-09-03T02:08:40.332Z,3.20
2022-09-03T02:11:10.601Z,3.23
2022-09-03T02:13:49.911Z,3.20
2022-09-03T02:16:22.211Z,3.30
2022-09-03T02:18:58.638Z,3.37
2022-09-03T02:21:31.062Z,3.70
2022-09-03T02:23:58.787Z,3.10
2022-09-03T02:26:26.095Z,3.33
2022-09-03T02:28:56.598Z,3.00
2022-09-03T02:31:24.904Z,3.30
2022-09-03T02:33:52.609Z,3.20
2022-09-03T02:36:27.578Z,3.00
2022-09-03T02:38:55.363Z,3.23
2022-09-03T02:41:22.946Z,3.30
2022-09-03T02:44:03.514Z,3.50
2022-09-03T02:46:41.485Z,3.10
2022-09-03T02:49:09.075Z,3.10
2022-09-03T02:51:39.764Z,3.33
2022-09-03T02:54:09.892Z,3.23
2022-09-03T02:56:37.264Z,2.90
2022-09-03T02:59:06.307Z,3.03
2022-09-03T03:01:33.836Z,3.00
2022-09-03T03:04:01.489Z,3.23
2022-09-03T03:06:28.767Z,3.33
2022-09-03T03:08:57.297Z,3.07
2022-09-03T03:11:26.682Z,2.73
2022-09-03T03:13:53.982Z,3.13
2022-09-03T03:16:21.146Z,3.43
2022-09-03T03:18:48.310Z,3.20
2022-09-03T03:21:18.536Z,3.23
2022-09-03T03:23:46.029Z,3.30
2022-09-03T03:26:18.797Z,3.53
2022-09-03T03:28:47.747Z,3.70
2022-09-03T03:31:21.540Z,3.60
2022-09-03T03:33:57.617Z,3.93
2022-09-03T03:36:27.942Z,3.23
2022-09-03T03:38:57.341Z,3.43
2022-09-03T03:41:31.713Z,3.53
2022-09-03T03:44:01.605Z,3.30
2022-09-03T03:46:40.709Z,3.23
2022-09-03T03:49:08.894Z,3.80
2022-09-03T03:51:37.736Z,4.20
2022-09-03T03:54:05.901Z,4.10
2022-09-03T03:56:35.186Z,3.37
2022-09-03T03:59:02.893Z,3.13
2022-09-03T04:01:30.443Z,3.57
2022-09-03T04:04:00.378Z,3.73
2022-09-03T04:06:28.287Z,3.33
2022-09-03T04:08:55.811Z,3.27
2022-09-03T04:11:24.346Z,3.77
2022-09-03T04:13:52.407Z,3.80
2022-09-03T04:16:25.332Z,3.70
2022-09-03T04:18:56.781Z,3.87
2022-09-03T04:21:28.480Z,3.40
2022-09-03T04:23:57.204Z,4.40
2022-09-03T04:26:32.847Z,4.23
2022-09-03T04:29:03.196Z,3.90
2022-09-03T04:31:31.101Z,4.03
2022-09-03T04:33:59.909Z,3.50
2022-09-03T04:36:29.087Z,4.03
2022-09-03T04:38:59.276Z,4.50
2022-09-03T04:41:29.817Z,4.30
2022-09-03T04:43:58.131Z,4.30
2022-09-03T04:46:28.026Z,3.97
2022-09-03T04:48:56.427Z,3.80
2022-09-03T04:51:27.681Z,4.13
2022-09-03T04:54:00.412Z,3.50
2022-09-03T04:56:33.376Z,3.70
2022-09-03T04:59:03.961Z,3.37
2022-09-03T05:01:33.997Z,3.40
2022-09-03T05:04:01.872Z,3.30
2022-09-03T05:06:30.941Z,3.50
2022-09-03T05:08:58.948Z,3.20
2022-09-03T05:11:27.961Z,3.33
2022-09-03T05:13:57.936Z,3.20
2022-09-03T05:16:26.324Z,2.83
2022-09-03T05:18:55.466Z,3.20
2022-09-03T05:21:23.216Z,3.30
2022-09-03T05:23:51.561Z,3.33
2022-09-03T05:26:23.566Z,3.30
2022-09-03T05:28:58.073Z,3.30
2022-09-03T05:31:28.366Z,2.77
2022-09-03T05:34:00.007Z,3.10
2022-09-03T05:36:38.429Z,2.90
2022-09-03T05:39:06.838Z,2.90
2022-09-03T05:41:34.390Z,3.50
2022-09-03T05:44:01.781Z,3.20
2022-09-03T05:46:32.388Z,3.38
2022-09-03T05:49:05.302Z,2.73
2022-09-03T05:51:33.967Z,3.37
2022-09-03T05:54:03.008Z,3.07
2022-09-03T05:56:32.569Z,3.20
2022-09-03T05:59:02.316Z,3.10
2022-09-03T06:01:35.186Z,2.97
2022-09-03T06:04:11.569Z,2.97
2022-09-03T06:06:40.907Z,3.53
2022-09-03T06:09:13.966Z,3.40
2022-09-03T06:11:43.148Z,3.50
2022-09-03T06:14:13.837Z,3.10
2022-09-03T06:16:49.813Z,3.40
2022-09-03T06:19:17.924Z,3.20
2022-09-03T06:21:46.641Z,3.50
2022-09-03T06:24:16.712Z,3.60
2022-09-03T06:26:44.426Z,3.30
2022-09-03T06:29:11.937Z,3.10
2022-09-03T06:31:39.919Z,3.05
2022-09-03T06:34:08.311Z,3.50
2022-09-03T06:36:35.766Z,3.10
2022-09-03T06:39:03.079Z,2.97
2022-09-03T06:41:33.426Z,2.95
2022-09-03T06:44:03.614Z,3.35
2022-09-03T06:46:39.100Z,3.22
2022-09-03T06:49:06.933Z,3.15
2022-09-03T06:51:34.544Z,3.20
2022-09-03T06:54:04.823Z,2.92
2022-09-03T06:56:37.524Z,3.28
2022-09-03T06:59:12.754Z,3.25
2022-09-03T07:01:43.561Z,3.42
2022-09-03T07:04:13.148Z,3.13
2022-09-03T07:06:42.727Z,3.40
2022-09-03T07:09:12.148Z,3.00
2022-09-03T07:11:47.517Z,3.50
2022-09-03T07:14:17.501Z,3.45
2022-09-03T07:16:46.426Z,2.83
2022-09-03T07:19:13.894Z,3.28
2022-09-03T07:21:49.714Z,3.03
2022-09-03T07:24:19.678Z,3.15
2022-09-03T07:26:47.203Z,2.97
2022-09-03T07:29:16.201Z,3.30
2022-09-03T07:31:44.373Z,3.03
2022-09-03T07:34:13.606Z,2.88
2022-09-03T07:36:43.554Z,3.20
2022-09-03T07:39:12.762Z,3.50
2022-09-03T07:41:42.907Z,3.47
2022-09-03T07:44:10.649Z,3.50
2022-09-03T07:46:38.923Z,3.20
2022-09-03T07:49:06.747Z,3.08
2022-09-03T07:51:37.123Z,3.42
2022-09-03T07:54:07.876Z,3.63
2022-09-03T07:56:36.145Z,3.40
2022-09-03T07:59:04.762Z,3.15
2022-09-03T08:01:33.257Z,3.35
2022-09-03T08:04:01.518Z,3.75
2022-09-03T08:06:30.376Z,3.40
2022-09-03T08:09:05.418Z,3.80
2022-09-03T08:11:37.891Z,3.40
2022-09-03T08:14:07.727Z,3.60
2022-09-03T08:16:41.958Z,4.03
2022-09-03T08:19:11.841Z,3.80
2022-09-03T08:21:42.465Z,2.85
2022-09-03T08:24:11.193Z,3.40
2022-09-03T08:26:42.462Z,3.70
2022-09-03T08:29:10.923Z,3.80
2022-09-03T08:31:38.365Z,3.47
2022-09-03T08:34:07.366Z,3.38
2022-09-03T08:36:36.817Z,4.10
2022-09-03T08:39:10.415Z,3.38
2022-09-03T08:41:56.772Z,3.70
2022-09-03T08:44:31.882Z,3.55
2022-09-03T08:47:21.049Z,3.42
2022-09-03T08:50:07.878Z,3.10
2022-09-03T08:52:49.526Z,3.50
2022-09-03T08:55:29.193Z,3.60
2022-09-03T08:58:15.735Z,3.58
2022-09-03T09:00:42.872Z,3.58
2022-09-03T09:04:06.916Z,3.15
2022-09-03T09:06:33.876Z,3.08
2022-09-03T09:09:42.494Z,3.22
2022-09-03T09:12:37.683Z,3.00
2022-09-03T09:15:49.806Z,3.60
2022-09-03T09:18:36.844Z,3.70
2022-09-03T09:21:32.749Z,3.42
2022-09-03T09:24:12.105Z,3.70
2022-09-03T09:26:41.373Z,3.55
2022-09-03T09:29:10.991Z,3.20
2022-09-03T09:31:45.389Z,3.10
2022-09-03T09:34:12.851Z,3.17
2022-09-03T09:36:50.729Z,3.22
2022-09-03T09:39:17.980Z,3.00
2022-09-03T09:42:05.564Z,3.22
2022-09-03T09:44:32.659Z,3.40
2022-09-03T09:47:22.965Z,3.50
2022-09-03T09:49:49.961Z,3.60
2022-09-03T09:52:17.669Z,3.13
2022-09-03T09:54:48.904Z,3.65
2022-09-03T09:57:22.813Z,3.50
2022-09-03T09:59:50.691Z,3.28
2022-09-03T10:02:26.853Z,3.20
2022-09-03T10:05:02.029Z,3.50
2022-09-03T10:07:33.064Z,3.50
2022-09-03T10:10:21.418Z,3.35
2022-09-03T10:13:09.428Z,3.15
2022-09-03T10:15:49.118Z,4.28
2022-09-03T10:18:28.446Z,4.88
2022-09-03T10:21:05.200Z,3.58
2022-09-03T10:24:06.212Z,3.67
2022-09-03T10:26:36.783Z,3.67
2022-09-03T10:29:06.037Z,4.25
2022-09-03T10:31:38.834Z,3.60
2022-09-03T10:34:29.104Z,4.00
2022-09-03T10:37:07.763Z,3.70
2022-09-03T10:40:14.637Z,4.05
2022-09-03T10:43:20.889Z,4.18
2022-09-03T10:46:23.437Z,3.72
2022-09-03T10:49:00.208Z,3.20
2022-09-03T10:51:40.608Z,3.15
2022-09-03T10:54:13.868Z,4.18
2022-09-03T10:56:58.794Z,3.63
2022-09-03T10:59:51.503Z,3.85
2022-09-03T11:02:51.216Z,3.38
2022-09-03T11:05:42.809Z,3.50
2022-09-03T11:08:15.329Z,3.45
2022-09-03T11:10:50.351Z,3.35
2022-09-03T11:13:46.724Z,3.38
2022-09-03T11:16:27.089Z,3.60
2022-09-03T11:19:11.432Z,3.50
2022-09-03T11:21:44.349Z,3.47
2022-09-03T11:24:27.034Z,3.40
2022-09-03T11:27:02.989Z,3.60
2022-09-03T11:29:58.488Z,3.30
2022-09-03T11:32:54.245Z,3.40
2022-09-03T11:35:32.043Z,3.25
2022-09-03T11:38:21.458Z,3.70
2022-09-03T11:41:15.078Z,3.22
2022-09-03T11:43:44.093Z,3.20
2022-09-03T11:46:14.058Z,3.63
2022-09-03T11:48:52.691Z,3.65
2022-09-03T11:51:33.643Z,2.72
2022-09-03T11:54:02.308Z,3.08
2022-09-03T11:56:31.713Z,3.38
2022-09-03T11:59:25.363Z,3.10
2022-09-03T12:02:14.717Z,3.38
2022-09-03T12:07:59.858Z,3.33
2022-09-03T12:10:39.512Z,3.20
2022-09-03T12:13:36.953Z,3.28
2022-09-03T12:16:56.218Z,3.17
2022-09-03T12:19:48.537Z,3.40
2022-09-03T12:22:17.693Z,3.45
2022-09-03T12:24:45.201Z,3.05
2022-09-03T12:27:24.410Z,3.00
2022-09-03T12:30:04.723Z,2.92
2022-09-03T12:32:37.471Z,3.75
2022-09-03T12:38:18.243Z,3.60
2022-09-03T12:43:42.448Z,3.03
2022-09-03T12:46:16.043Z,3.05
2022-09-03T12:52:03.097Z,3.40
2022-09-03T12:54:33.289Z,3.30
2022-09-03T12:57:01.292Z,3.20
2022-09-03T12:59:33.909Z,3.38
2022-09-03T13:02:07.232Z,3.33
2022-09-03T13:04:37.183Z,3.65
2022-09-03T13:07:14.933Z,3.22
2022-09-03T13:09:42.998Z,3.25
2022-09-03T13:12:29.890Z,3.60
2022-09-03T13:14:57.883Z,3.25
2022-09-03T13:17:54.604Z,3.60
2022-09-03T13:20:49.088Z,3.47
2022-09-03T13:23:28.498Z,3.67
2022-09-03T13:26:17.729Z,3.67
2022-09-03T13:29:06.619Z,3.97
2022-09-03T13:31:52.004Z,3.55
2022-09-03T13:34:37.970Z,4.00
2022-09-03T13:37:27.558Z,3.40
2022-09-03T13:40:24.779Z,3.40
2022-09-03T13:43:26.475Z,3.42
2022-09-03T13:46:03.165Z,3.47
2022-09-03T13:49:04.176Z,3.08
2022-09-03T13:51:54.397Z,2.75
2022-09-03T13:57:40.310Z,3.28
2022-09-03T14:00:12.748Z,3.33
2022-09-03T14:02:58.644Z,3.20
2022-09-03T14:06:10.424Z,2.95
2022-09-03T15:07:44.570Z,2.85
2022-09-03T15:22:14.605Z,2.97
2022-09-03T15:24:54.111Z,3.08
2022-09-03T15:27:47.170Z,2.90
2022-09-03T15:30:22.069Z,2.60
2022-09-03T15:33:08.011Z,2.85
2022-09-03T15:35:53.269Z,3.20
2022-09-03T15:38:43.545Z,2.78
2022-09-03T15:41:25.070Z,2.95
2022-09-03T15:44:04.129Z,2.78
2022-09-03T15:46:40.332Z,3.55
2022-09-03T15:49:28.625Z,2.60
2022-09-03T15:52:20.847Z,2.88
2022-09-03T15:58:20.926Z,2.65
2022-09-03T16:01:35.985Z,2.58
2022-09-03T16:04:14.504Z,3.08
2022-09-03T16:06:44.423Z,2.80
2022-09-03T16:09:25.890Z,3.25
2022-09-03T16:12:19.184Z,3.15
2022-09-03T16:15:18.099Z,2.90
2022-09-03T16:18:01.925Z,3.20
2022-09-03T16:21:00.209Z,2.92
2022-09-03T16:23:47.841Z,2.63
2022-09-03T16:26:44.463Z,3.05
2022-09-03T16:29:30.561Z,3.00
2022-09-03T16:32:24.118Z,3.65
2022-09-03T16:35:45.790Z,3.00
2022-09-03T16:38:18.311Z,3.20
2022-09-03T16:40:56.124Z,2.92
2022-09-03T16:43:48.795Z,3.15
2022-09-03T16:46:36.350Z,2.83
2022-09-03T16:49:14.193Z,3.13
2022-09-03T16:51:47.772Z,3.30
2022-09-03T16:54:44.851Z,2.92
2022-09-03T16:57:48.670Z,3.05
2022-09-03T17:00:18.940Z,3.17
2022-09-03T17:06:33.811Z,3.25
2022-09-03T17:12:54.797Z,3.20
2022-09-03T17:15:44.003Z,3.10
2022-09-03T17:18:36.292Z,3.20
2022-09-03T17:21:20.760Z,3.10
2022-09-03T17:24:53.149Z,3.22
2022-09-03T17:27:48.479Z,3.08
2022-09-03T17:30:31.537Z,3.35
2022-09-03T17:33:32.872Z,3.70
2022-09-03T17:36:10.752Z,3.53
2022-09-03T17:39:20.578Z,3.20
2022-09-03T17:42:01.914Z,3.05
2022-09-03T17:44:31.024Z,2.97
2022-09-03T17:47:34.224Z,3.20
2022-09-03T17:50:15.107Z,3.15
2022-09-03T17:55:59.101Z,3.40
2022-09-03T17:58:34.754Z,3.20
2022-09-03T18:01:11.144Z,3.17
2022-09-03T18:04:27.641Z,3.17
2022-09-03T18:07:08.604Z,2.90
2022-09-03T18:10:08.168Z,3.20
2022-09-03T18:13:03.507Z,3.22
2022-09-03T18:15:40.971Z,3.13
2022-09-03T18:18:19.294Z,3.20
2022-09-03T18:21:24.357Z,2.88
2022-09-03T18:24:30.556Z,3.33
2022-09-03T18:27:27.525Z,2.97
2022-09-03T18:30:30.853Z,2.85
2022-09-03T18:33:17.509Z,2.78
2022-09-03T18:36:05.308Z,3.10
2022-09-03T18:38:59.759Z,3.03
2022-09-03T18:41:56.414Z,2.90
2022-09-03T18:45:21.698Z,2.72
2022-09-03T18:48:28.928Z,2.78
2022-09-03T18:51:34.494Z,3.00
2022-09-03T18:55:08.974Z,2.95
2022-09-03T18:58:08.133Z,3.15
2022-09-03T19:01:02.853Z,2.90
2022-09-03T19:04:02.100Z,2.70
2022-09-03T19:07:09.949Z,2.88
2022-09-03T19:10:34.254Z,2.92
2022-09-03T19:13:59.835Z,2.80
2022-09-03T19:16:52.169Z,3.00
2022-09-03T19:20:19.533Z,3.13
2022-09-03T19:23:05.898Z,2.70
2022-09-03T19:25:51.453Z,2.78
2022-09-03T19:28:45.678Z,2.90
2022-09-03T19:31:48.323Z,2.70
2022-09-03T19:34:45.415Z,3.10
2022-09-03T19:37:40.558Z,3.40
2022-09-03T19:40:53.613Z,3.20
2022-09-03T19:44:12.258Z,3.53
2022-09-03T19:47:19.755Z,3.45
2022-09-03T19:50:36.103Z,3.40
2022-09-03T19:53:35.454Z,3.50
2022-09-03T19:56:45.057Z,3.40
2022-09-03T19:59:44.248Z,3.00
2022-09-03T20:02:32.151Z,3.25
2022-09-03T20:05:20.088Z,3.60
2022-09-03T20:08:13.488Z,3.22
2022-09-03T20:10:43.916Z,3.13
2022-09-03T20:13:19.953Z,3.15
2022-09-03T20:15:54.155Z,3.05
2022-09-03T20:18:40.869Z,3.38
2022-09-03T20:21:32.283Z,3.20
2022-09-03T20:24:25.248Z,3.10
2022-09-03T20:27:01.233Z,2.90
2022-09-03T20:29:52.539Z,3.28
2022-09-03T20:33:11.143Z,3.17
2022-09-03T20:35:55.653Z,3.22
2022-09-03T20:38:55.795Z,2.90
2022-09-03T20:41:51.093Z,2.92
2022-09-03T20:44:30.317Z,3.30
2022-09-03T20:47:26.654Z,2.95
2022-09-03T20:50:28.548Z,3.30
2022-09-03T20:53:30.213Z,3.25
2022-09-03T20:56:10.667Z,3.67
2022-09-03T20:59:04.345Z,3.53
2022-09-03T21:01:56.366Z,3.47
2022-09-03T21:07:29.326Z,3.53
2022-09-03T21:10:20.953Z,3.83
2022-09-03T21:13:21.929Z,3.47
2022-09-03T21:15:56.771Z,3.55
2022-09-03T21:18:46.996Z,3.42
2022-09-03T21:21:42.348Z,3.70
2022-09-03T21:24:22.908Z,3.80
2022-09-03T21:27:23.653Z,3.67
2022-09-03T21:30:13.923Z,3.70
2022-09-03T21:33:11.353Z,3.70
2022-09-03T21:36:17.757Z,3.80
2022-09-03T21:39:24.480Z,3.80
2022-09-03T21:42:12.913Z,4.20
2022-09-03T21:45:34.489Z,4.25
2022-09-03T21:49:11.229Z,3.85
2022-09-03T21:51:54.710Z,4.18
2022-09-03T21:54:33.866Z,4.15
2022-09-03T21:57:23.593Z,3.75
2022-09-03T22:00:21.429Z,3.90
2022-09-03T22:02:53.370Z,4.05
2022-09-03T22:05:23.255Z,4.13
2022-09-03T22:08:38.789Z,3.70
2022-09-03T22:11:27.589Z,4.13
2022-09-03T22:14:18.973Z,4.32
2022-09-03T22:16:51.559Z,3.70
2022-09-03T22:19:20.375Z,4.35
2022-09-03T22:22:02.353Z,4.10
2022-09-03T22:25:14.161Z,4.00
2022-09-03T22:28:08.085Z,4.53
2022-09-03T22:31:13.084Z,4.03
2022-09-03T22:34:24.735Z,4.35
2022-09-03T22:37:27.934Z,4.18
2022-09-03T22:40:19.958Z,4.20
2022-09-03T22:43:31.277Z,3.60
2022-09-03T22:46:21.683Z,4.20
2022-09-03T22:49:09.658Z,4.10
2022-09-03T22:52:20.283Z,4.20
2022-09-03T22:55:24.171Z,4.30
2022-09-03T22:58:15.014Z,4.32
2022-09-03T23:01:04.191Z,4.50
2022-09-03T23:03:43.629Z,4.60
2022-09-03T23:06:42.234Z,3.78
2022-09-03T23:09:26.064Z,4.10
2022-09-03T23:12:09.377Z,4.25
2022-09-03T23:15:03.249Z,3.95
2022-09-03T23:20:42.153Z,4.10
2022-09-03T23:23:35.423Z,4.32
2022-09-03T23:26:17.084Z,4.20
2022-09-03T23:29:23.718Z,3.80
2022-09-03T23:31:54.476Z,3.90
2022-09-03T23:34:31.649Z,4.20
2022-09-03T23:37:37.278Z,4.35
2022-09-03T23:40:26.653Z,4.38
2022-09-03T23:43:24.588Z,4.20
2022-09-03T23:46:36.493Z,4.72
2022-09-03T23:49:53.184Z,4.60
2022-09-03T23:53:08.193Z,4.57
2022-09-03T23:56:22.799Z,4.65
2022-09-03T23:59:33.058Z,4.60
